Terminal Aerodrome Forecast
Issued by NWS Twin Cities, MN

Home | Current Version | Previous Version | Text Only | Print | Product List | Glossary On
Versions: 1 2 3 4 5 6 7 8 9 10 11 12 13 14
000
FTUS43 KMPX 190520
TAFSTC
TAF
KSTC 190520Z 1906/2006 36016G22KT P6SM SCT015 OVC025
     FM191000 36016KT P6SM VCSH OVC015
     FM191600 02018G23KT 2SM -SN BR OVC015
     FM200000 02009KT 4SM -SN BR OVC020=

USA.gov is the U.S. government's official web portal to all federal, state and local government web resources and services.